createdAt,value
2022-09-20T00:00:27.355Z,99.80
2022-09-20T00:01:27.391Z,99.80
2022-09-20T00:02:27.341Z,99.80
2022-09-20T00:03:27.302Z,99.80
2022-09-20T00:04:27.282Z,99.70
2022-09-20T00:05:27.947Z,99.70
2022-09-20T00:06:27.723Z,99.70
2022-09-20T00:07:27.469Z,99.70
2022-09-20T00:08:27.921Z,99.70
2022-09-20T00:09:27.448Z,99.70
2022-09-20T00:10:27.507Z,99.70
2022-09-20T00:11:32.651Z,99.70
2022-09-20T00:12:29.719Z,99.50
2022-09-20T00:13:27.710Z,99.50
2022-09-20T00:14:27.589Z,99.40
2022-09-20T00:15:27.469Z,99.40
2022-09-20T00:16:27.554Z,99.40
2022-09-20T00:17:29.808Z,99.29
2022-09-20T00:18:28.229Z,99.29
2022-09-20T00:19:28.926Z,99.19
2022-09-20T00:20:27.434Z,99.09
2022-09-20T00:21:27.946Z,98.88
2022-09-20T00:22:27.666Z,98.78
2022-09-20T00:23:32.027Z,98.78
2022-09-20T00:24:27.298Z,98.88
2022-09-20T00:25:48.950Z,98.88
2022-09-20T00:26:29.928Z,98.99
2022-09-20T00:27:28.057Z,98.88
2022-09-20T00:28:30.972Z,98.88
2022-09-20T00:29:48.867Z,98.88
2022-09-20T00:30:33.431Z,98.88
2022-09-20T00:31:49.501Z,98.78
2022-09-20T00:32:28.556Z,98.88
2022-09-20T00:33:33.100Z,98.88
2022-09-20T00:34:32.842Z,98.88
2022-09-20T00:36:36.399Z,98.88
2022-09-20T00:37:34.689Z,98.99
2022-09-20T00:38:34.680Z,98.99
2022-09-20T00:39:34.679Z,99.09
2022-09-20T00:40:34.631Z,99.09
2022-09-20T00:41:34.609Z,99.09
2022-09-20T00:42:34.598Z,99.09
2022-09-20T00:43:34.608Z,99.09
2022-09-20T00:44:34.608Z,99.09
2022-09-20T00:45:34.663Z,99.09
2022-09-20T00:46:34.570Z,98.99
2022-09-20T00:47:51.924Z,98.99
2022-09-20T00:48:34.555Z,98.99
2022-09-20T00:49:34.765Z,98.88
2022-09-20T00:50:34.523Z,98.88
2022-09-20T00:51:34.514Z,98.88
2022-09-20T00:52:34.546Z,98.88
2022-09-20T00:53:34.505Z,98.88
2022-09-20T00:54:34.453Z,98.88
2022-09-20T00:55:34.433Z,98.88
2022-09-20T00:56:34.673Z,98.78
2022-09-20T00:57:35.303Z,98.88
2022-09-20T00:58:34.623Z,98.78
2022-09-20T00:59:34.570Z,98.78
2022-09-20T01:00:42.312Z,98.78
2022-09-20T01:01:34.945Z,98.78
2022-09-20T01:02:35.343Z,98.78
2022-09-20T01:03:34.882Z,98.78
2022-09-20T01:04:35.395Z,98.68
2022-09-20T01:05:34.900Z,98.68
2022-09-20T01:06:34.660Z,98.68
2022-09-20T01:07:34.821Z,98.62
2022-09-20T01:08:37.231Z,98.47
2022-09-20T01:09:35.468Z,98.52
2022-09-20T01:10:35.075Z,98.42
2022-09-20T01:11:36.978Z,98.32
2022-09-20T01:12:38.929Z,98.32
2022-09-20T01:13:35.198Z,98.21
2022-09-20T01:14:34.814Z,98.21
2022-09-20T01:15:35.748Z,98.21
2022-09-20T01:16:34.499Z,98.21
2022-09-20T01:17:34.782Z,98.21
2022-09-20T01:18:35.776Z,98.21
2022-09-20T01:19:35.406Z,98.21
2022-09-20T01:20:36.418Z,98.21
2022-09-20T01:21:35.356Z,98.21
2022-09-20T01:22:56.117Z,98.32
2022-09-20T01:24:40.780Z,98.32
2022-09-20T01:25:40.751Z,98.32
2022-09-20T01:26:40.756Z,98.32
2022-09-20T01:27:40.737Z,98.42
2022-09-20T01:28:40.720Z,98.42
2022-09-20T01:29:40.666Z,98.52
2022-09-20T01:30:40.686Z,98.52
2022-09-20T01:31:40.722Z,98.52
2022-09-20T01:32:40.644Z,98.52
2022-09-20T01:33:40.648Z,98.62
2022-09-20T01:34:40.602Z,98.62
2022-09-20T01:35:40.654Z,98.62
2022-09-20T01:36:40.625Z,98.62
2022-09-20T01:37:40.587Z,98.67
2022-09-20T01:38:40.573Z,98.67
2022-09-20T01:39:40.585Z,98.62
2022-09-20T01:40:40.593Z,98.67
2022-09-20T01:41:40.512Z,98.62
2022-09-20T01:42:40.513Z,98.67
2022-09-20T01:43:40.503Z,98.67
2022-09-20T01:44:40.530Z,98.72
2022-09-20T01:45:40.605Z,98.67
2022-09-20T01:46:40.464Z,98.67
2022-09-20T01:47:40.442Z,98.77
2022-09-20T01:48:40.421Z,98.77
2022-09-20T01:49:40.511Z,98.77
2022-09-20T01:50:40.432Z,98.77
2022-09-20T01:51:40.392Z,98.87
2022-09-20T01:52:40.369Z,98.87
2022-09-20T01:53:40.401Z,98.87
2022-09-20T01:54:40.368Z,98.87
2022-09-20T01:55:40.395Z,98.87
2022-09-20T01:56:40.326Z,98.87
2022-09-20T01:57:40.327Z,98.97
2022-09-20T01:58:40.309Z,98.97
2022-09-20T01:59:40.288Z,98.97
2022-09-20T02:00:40.327Z,98.97
2022-09-20T02:01:40.380Z,98.97
2022-09-20T02:02:40.373Z,98.97
2022-09-20T02:03:40.266Z,98.97
2022-09-20T02:04:40.227Z,98.97
2022-09-20T02:05:40.250Z,99.08
2022-09-20T02:06:40.187Z,98.97
2022-09-20T02:07:40.234Z,99.08
2022-09-20T02:08:40.443Z,98.97
2022-09-20T02:09:41.335Z,99.08
2022-09-20T02:10:40.256Z,99.08
2022-09-20T02:11:40.434Z,99.08
2022-09-20T02:12:44.593Z,99.08
2022-09-20T02:13:40.887Z,99.08
2022-09-20T02:14:44.404Z,99.08
2022-09-20T02:15:40.170Z,99.08
2022-09-20T02:16:40.704Z,99.18
2022-09-20T02:17:40.517Z,99.18
2022-09-20T02:18:49.628Z,99.18
2022-09-20T02:19:40.121Z,99.18
2022-09-20T02:20:40.059Z,99.18
2022-09-20T02:21:40.008Z,99.18
2022-09-20T02:22:40.001Z,99.18
2022-09-20T02:23:39.996Z,99.18
2022-09-20T02:24:39.958Z,99.18
2022-09-20T02:25:39.987Z,99.18
2022-09-20T02:26:39.967Z,99.18
2022-09-20T02:27:40.915Z,99.18
2022-09-20T02:28:39.917Z,99.18
2022-09-20T02:29:39.906Z,99.18
2022-09-20T02:30:39.938Z,99.18
2022-09-20T02:31:39.969Z,99.18
2022-09-20T02:32:39.885Z,99.18
2022-09-20T02:33:39.894Z,99.18
2022-09-20T02:34:39.864Z,99.18
2022-09-20T02:35:39.855Z,99.18
2022-09-20T02:36:39.844Z,99.18
2022-09-20T02:37:39.895Z,99.18
2022-09-20T02:38:39.815Z,99.18
2022-09-20T02:39:39.776Z,99.18
2022-09-20T02:40:39.842Z,99.18
2022-09-20T02:41:39.752Z,99.18
2022-09-20T02:42:39.788Z,99.18
2022-09-20T02:43:39.763Z,99.18
2022-09-20T02:44:39.844Z,99.18
2022-09-20T02:45:40.680Z,99.18
2022-09-20T02:46:40.253Z,99.18
2022-09-20T02:48:01.136Z,99.18
2022-09-20T02:48:39.921Z,99.18
2022-09-20T02:49:40.689Z,99.18
2022-09-20T02:50:52.449Z,99.08
2022-09-20T02:51:52.021Z,99.08
2022-09-20T02:53:04.844Z,99.08
2022-09-20T02:53:49.263Z,99.08
2022-09-20T02:54:41.030Z,99.08
2022-09-20T02:55:39.930Z,99.08
2022-09-20T02:56:44.719Z,99.08
2022-09-20T02:57:40.437Z,98.97
2022-09-20T02:59:04.750Z,98.97
2022-09-20T02:59:52.446Z,98.97
2022-09-20T03:00:39.547Z,98.87
2022-09-20T03:01:39.608Z,98.97
2022-09-20T03:02:39.536Z,98.97
2022-09-20T03:03:50.313Z,98.97
2022-09-20T03:04:39.591Z,98.97
2022-09-20T03:05:39.446Z,98.87
2022-09-20T03:06:39.455Z,98.87
2022-09-20T03:07:39.450Z,98.92
2022-09-20T03:08:39.471Z,98.92
2022-09-20T03:09:39.405Z,98.92
2022-09-20T03:10:39.409Z,98.82
2022-09-20T03:11:39.364Z,98.82
2022-09-20T03:12:39.377Z,98.82
2022-09-20T03:13:39.375Z,98.82
2022-09-20T03:14:39.332Z,98.82
2022-09-20T03:15:50.791Z,98.82
2022-09-20T03:16:39.355Z,98.82
2022-09-20T03:17:39.293Z,98.82
2022-09-20T03:18:39.374Z,98.82
2022-09-20T03:19:39.273Z,98.92
2022-09-20T03:20:39.293Z,98.92
2022-09-20T03:21:39.233Z,98.82
2022-09-20T03:22:39.234Z,98.82
2022-09-20T03:23:39.223Z,98.92
2022-09-20T03:24:39.352Z,98.92
2022-09-20T03:25:39.391Z,98.92
2022-09-20T03:26:39.329Z,98.92
2022-09-20T03:27:39.443Z,98.92
2022-09-20T03:28:39.535Z,98.92
2022-09-20T03:29:39.718Z,98.92
2022-09-20T03:30:39.629Z,98.92
2022-09-20T03:31:39.500Z,98.92
2022-09-20T03:32:39.578Z,98.92
2022-09-20T03:33:39.197Z,98.92
2022-09-20T03:34:39.318Z,98.92
2022-09-20T03:35:41.477Z,98.92
2022-09-20T03:36:39.579Z,98.92
2022-09-20T03:37:42.191Z,98.92
2022-09-20T03:38:39.488Z,98.92
2022-09-20T03:39:39.354Z,98.92
2022-09-20T03:40:42.898Z,99.02
2022-09-20T03:41:40.636Z,99.02
2022-09-20T03:42:39.275Z,98.92
2022-09-20T03:43:39.177Z,98.92
2022-09-20T03:44:39.262Z,98.92
2022-09-20T03:45:39.645Z,98.92
2022-09-20T03:46:39.704Z,98.92
2022-09-20T03:47:39.496Z,98.92
2022-09-20T03:48:40.144Z,99.02
2022-09-20T03:49:43.976Z,99.07
2022-09-20T03:50:39.393Z,99.02
2022-09-20T03:51:38.962Z,99.17
2022-09-20T03:52:41.092Z,99.17
2022-09-20T03:53:43.088Z,99.12
2022-09-20T03:54:39.352Z,99.17
2022-09-20T03:55:39.105Z,99.17
2022-09-20T03:56:39.641Z,99.12
2022-09-20T03:57:39.702Z,99.17
2022-09-20T03:58:39.679Z,99.17
2022-09-20T03:59:39.852Z,99.17
2022-09-20T04:00:39.989Z,99.17
2022-09-20T04:01:51.227Z,99.17
2022-09-20T04:02:38.812Z,99.17
2022-09-20T04:03:38.696Z,99.17
2022-09-20T04:04:38.725Z,99.17
2022-09-20T04:05:38.707Z,99.27
2022-09-20T04:06:38.670Z,99.27
2022-09-20T04:07:38.704Z,99.27
2022-09-20T04:08:40.374Z,99.27
2022-09-20T04:09:42.574Z,99.27
2022-09-20T04:10:38.913Z,99.38
2022-09-20T04:11:39.163Z,99.38
2022-09-20T04:12:38.984Z,99.38
2022-09-20T04:13:38.923Z,99.48
2022-09-20T04:14:39.387Z,99.48
2022-09-20T04:15:38.692Z,99.48
2022-09-20T04:16:38.898Z,99.58
2022-09-20T04:17:38.821Z,99.54
2022-09-20T04:18:38.750Z,99.54
2022-09-20T04:19:39.038Z,99.68
2022-09-20T04:20:39.179Z,99.63
2022-09-20T04:21:39.491Z,99.68
2022-09-20T04:22:38.741Z,99.68
2022-09-20T04:23:39.168Z,99.68
2022-09-20T04:24:43.190Z,99.63
2022-09-20T04:25:43.024Z,99.74
2022-09-20T04:26:40.421Z,99.74
2022-09-20T04:27:38.737Z,99.74
2022-09-20T04:28:38.820Z,99.79
2022-09-20T04:29:39.188Z,99.74
2022-09-20T04:30:38.689Z,99.74
2022-09-20T04:31:43.152Z,99.79
2022-09-20T04:32:38.795Z,99.79
2022-09-20T04:33:39.200Z,99.79
2022-09-20T04:34:38.579Z,99.68
2022-09-20T04:35:38.806Z,99.68
2022-09-20T04:36:38.456Z,99.68
2022-09-20T04:37:38.717Z,99.58
2022-09-20T04:38:38.636Z,99.68
2022-09-20T04:39:38.650Z,99.58
2022-09-20T04:40:38.687Z,99.58
2022-09-20T04:41:38.494Z,99.58
2022-09-20T04:42:38.536Z,99.58
2022-09-20T04:43:43.147Z,99.48
2022-09-20T04:44:39.444Z,99.48
2022-09-20T04:45:38.876Z,99.48
2022-09-20T04:46:39.254Z,99.48
2022-09-20T04:47:38.503Z,99.48
2022-09-20T04:48:39.487Z,99.48
2022-09-20T04:49:39.147Z,99.48
2022-09-20T04:50:38.482Z,99.48
2022-09-20T04:51:38.401Z,99.48
2022-09-20T04:52:38.475Z,99.48
2022-09-20T04:53:38.411Z,99.48
2022-09-20T04:54:38.371Z,99.48
2022-09-20T04:55:38.350Z,99.48
2022-09-20T04:56:38.202Z,99.38
2022-09-20T04:57:38.370Z,99.38
2022-09-20T04:58:38.516Z,99.38
2022-09-20T04:59:38.259Z,99.38
2022-09-20T05:00:38.118Z,99.27
2022-09-20T05:01:38.035Z,99.17
2022-09-20T05:02:38.006Z,99.07
2022-09-20T05:03:37.970Z,99.01
2022-09-20T05:04:37.922Z,98.91
2022-09-20T05:05:37.917Z,98.91
2022-09-20T05:06:37.908Z,98.80
2022-09-20T05:07:37.914Z,98.70
2022-09-20T05:08:37.886Z,98.70
2022-09-20T05:09:37.898Z,98.60
2022-09-20T05:10:37.846Z,98.60
2022-09-20T05:11:37.858Z,98.50
2022-09-20T05:12:37.815Z,98.39
2022-09-20T05:13:37.924Z,98.19
2022-09-20T05:14:38.763Z,98.19
2022-09-20T05:15:37.823Z,98.08
2022-09-20T05:16:40.733Z,98.08
2022-09-20T05:17:38.764Z,98.13
2022-09-20T05:18:37.795Z,98.03
2022-09-20T05:19:37.754Z,98.03
2022-09-20T05:20:37.730Z,97.92
2022-09-20T05:21:37.711Z,97.92
2022-09-20T05:22:37.709Z,97.92
2022-09-20T05:23:38.152Z,97.92
2022-09-20T05:24:53.202Z,97.82
2022-09-20T05:25:37.688Z,97.82
2022-09-20T05:26:49.919Z,97.72
2022-09-20T05:29:17.663Z,97.62
2022-09-20T05:32:31.941Z,97.66
2022-09-20T05:33:31.890Z,97.77
2022-09-20T05:37:01.396Z,97.66
2022-09-20T05:39:14.729Z,97.66
2022-09-20T05:40:14.677Z,97.77
2022-09-20T05:41:43.631Z,97.77
2022-09-20T05:43:39.259Z,97.66
2022-09-20T05:45:52.361Z,97.56
2022-09-20T05:48:25.838Z,97.71
2022-09-20T05:51:21.869Z,97.71
2022-09-20T05:53:41.527Z,97.71
2022-09-20T05:54:41.555Z,97.61
2022-09-20T05:55:41.488Z,97.61
2022-09-20T05:56:41.507Z,97.61
2022-09-20T05:57:41.486Z,97.71
2022-09-20T05:58:41.475Z,97.71
2022-09-20T05:59:41.504Z,97.71
2022-09-20T06:00:41.456Z,97.81
2022-09-20T06:01:41.444Z,97.91
2022-09-20T06:02:41.428Z,98.02
2022-09-20T06:03:41.404Z,98.22
2022-09-20T06:04:41.375Z,98.33
2022-09-20T06:05:41.383Z,98.43
2022-09-20T06:06:41.361Z,98.63
2022-09-20T06:07:41.342Z,98.84
2022-09-20T06:08:41.355Z,99.15
2022-09-20T06:09:41.321Z,99.35
2022-09-20T06:10:41.291Z,99.56
2022-09-20T06:11:43.920Z,99.77
2022-09-20T06:12:41.320Z,99.97
2022-09-20T06:13:41.260Z,99.99
2022-09-20T06:14:41.301Z,99.99
2022-09-20T06:15:41.251Z,99.99
2022-09-20T06:16:41.301Z,99.99
2022-09-20T06:17:41.249Z,99.99
2022-09-20T06:18:41.241Z,99.99
2022-09-20T06:19:41.199Z,99.99
2022-09-20T06:20:41.188Z,99.99
2022-09-20T06:21:41.186Z,99.99
2022-09-20T06:22:41.156Z,99.99
2022-09-20T06:23:41.148Z,99.99
2022-09-20T06:24:41.195Z,99.99
2022-09-20T06:25:41.120Z,99.99
2022-09-20T06:26:41.126Z,99.99
2022-09-20T06:27:41.085Z,99.99
2022-09-20T06:28:41.096Z,99.99
2022-09-20T06:29:41.101Z,99.99
2022-09-20T06:30:41.124Z,99.99
2022-09-20T06:31:41.026Z,99.99
2022-09-20T06:32:41.025Z,99.99
2022-09-20T06:33:41.034Z,99.99
2022-09-20T06:34:41.039Z,99.99
2022-09-20T06:35:40.993Z,99.99
2022-09-20T06:36:41.005Z,99.99
2022-09-20T06:37:41.183Z,99.99
2022-09-20T06:38:40.952Z,99.99
2022-09-20T06:39:40.965Z,99.99
2022-09-20T06:40:40.980Z,99.99
2022-09-20T06:41:40.920Z,99.99
2022-09-20T06:42:40.929Z,99.99
2022-09-20T06:43:40.874Z,99.99
2022-09-20T06:44:40.881Z,99.99
2022-09-20T06:45:40.929Z,99.99
2022-09-20T06:46:40.830Z,99.99
2022-09-20T06:47:40.858Z,99.99
2022-09-20T06:49:08.562Z,99.99
2022-09-20T06:49:40.793Z,99.99
2022-09-20T06:50:40.820Z,99.99
2022-09-20T06:52:13.451Z,99.99
2022-09-20T06:52:40.785Z,99.99
2022-09-20T07:00:43.022Z,99.99
2022-09-20T07:04:15.229Z,99.99
2022-09-20T07:05:15.041Z,99.99
2022-09-20T07:06:15.009Z,99.99
2022-09-20T07:09:15.593Z,99.99
2022-09-20T07:15:46.755Z,99.99
2022-09-20T07:16:47.675Z,99.99
2022-09-20T07:19:10.999Z,99.99
2022-09-20T07:21:37.163Z,99.99
2022-09-20T07:23:44.186Z,99.99
2022-09-20T07:27:09.133Z,99.99
2022-09-20T07:29:17.175Z,99.99
2022-09-20T07:30:17.133Z,99.99
2022-09-20T07:34:24.165Z,99.99
2022-09-20T07:35:21.054Z,99.99
2022-09-20T07:36:19.964Z,99.99
2022-09-20T07:37:19.937Z,99.99
2022-09-20T07:38:19.963Z,99.99
2022-09-20T07:39:19.902Z,99.99
2022-09-20T07:40:19.942Z,99.99
2022-09-20T07:41:19.872Z,99.99
2022-09-20T07:42:19.892Z,99.99
2022-09-20T07:43:19.912Z,99.99
2022-09-20T07:44:19.872Z,99.99
2022-09-20T07:45:19.840Z,99.99
2022-09-20T07:46:19.883Z,99.99
2022-09-20T07:47:19.820Z,99.99
2022-09-20T07:48:19.808Z,99.99
2022-09-20T07:49:19.780Z,99.99
2022-09-20T07:50:19.772Z,99.99
2022-09-20T07:51:20.443Z,99.99
2022-09-20T07:52:19.747Z,99.99
2022-09-20T07:53:19.790Z,99.99
2022-09-20T07:56:51.864Z,99.99
2022-09-20T08:02:22.459Z,99.99
2022-09-20T08:04:56.792Z,99.99
2022-09-20T08:11:10.232Z,99.26
2022-09-20T08:14:09.856Z,99.05
2022-09-20T08:15:11.866Z,99.01
2022-09-20T08:16:31.971Z,98.80
2022-09-20T08:17:08.817Z,98.49
2022-09-20T08:18:13.658Z,98.39
2022-09-20T08:19:09.357Z,97.78
2022-09-20T08:20:22.871Z,96.25
2022-09-20T08:21:09.427Z,95.22
2022-09-20T08:22:12.913Z,95.12
2022-09-20T08:23:30.590Z,95.32
2022-09-20T08:24:12.450Z,95.53
2022-09-20T08:25:09.690Z,95.84
2022-09-20T08:26:12.612Z,95.22
2022-09-20T08:27:08.790Z,94.60
2022-09-20T08:28:09.750Z,94.71
2022-09-20T08:29:11.209Z,95.22
2022-09-20T08:30:08.785Z,95.59
2022-09-20T08:31:10.669Z,95.69
2022-09-20T08:32:08.459Z,95.79
2022-09-20T08:33:09.130Z,95.89
2022-09-20T08:34:12.553Z,94.87
2022-09-20T08:35:09.967Z,94.77
2022-09-20T08:36:10.130Z,94.97
2022-09-20T08:37:08.546Z,95.13
2022-09-20T08:40:11.837Z,95.44
2022-09-20T08:41:30.245Z,95.34
2022-09-20T08:42:17.902Z,95.34
2022-09-20T08:43:13.463Z,95.34
2022-09-20T08:44:08.361Z,95.29
2022-09-20T08:45:08.313Z,94.58
2022-09-20T08:46:08.223Z,93.66
2022-09-20T08:47:08.201Z,93.25
2022-09-20T08:48:08.155Z,93.35
2022-09-20T08:49:10.981Z,93.86
2022-09-20T08:50:10.042Z,93.66
2022-09-20T08:51:08.071Z,92.43
2022-09-20T08:52:36.316Z,91.82
2022-09-20T08:53:09.432Z,92.02
2022-09-20T08:54:12.143Z,92.13
2022-09-20T08:55:08.701Z,91.61
2022-09-20T08:56:16.570Z,92.02
2022-09-20T08:57:08.292Z,91.31
2022-09-20T08:58:15.402Z,91.31
2022-09-20T08:59:08.262Z,89.78
2022-09-20T09:00:08.100Z,90.39
2022-09-20T09:01:08.138Z,91.31
2022-09-20T09:02:08.222Z,91.31
2022-09-20T09:03:08.889Z,90.80
2022-09-20T09:04:08.003Z,90.49
2022-09-20T09:05:08.201Z,91.06
2022-09-20T09:06:12.437Z,90.75
2022-09-20T09:07:08.839Z,91.47
2022-09-20T09:08:18.477Z,91.47
2022-09-20T09:10:16.862Z,90.55
2022-09-20T09:11:32.268Z,90.25
2022-09-20T09:13:40.640Z,89.23
2022-09-20T09:14:42.342Z,89.94
2022-09-20T09:15:41.261Z,89.32
2022-09-20T09:16:44.614Z,89.63
2022-09-20T09:17:52.462Z,88.51
2022-09-20T09:18:53.713Z,88.10
2022-09-20T09:19:40.807Z,87.45
2022-09-20T09:20:47.804Z,88.78
2022-09-20T09:21:46.930Z,87.24
2022-09-20T09:22:53.504Z,86.22
2022-09-20T09:23:40.916Z,87.04
2022-09-20T09:24:40.578Z,87.45
2022-09-20T09:25:40.642Z,87.65
2022-09-20T09:26:40.786Z,86.22
2022-09-20T09:27:41.081Z,87.10
2022-09-20T09:28:40.628Z,88.22
2022-09-20T09:29:40.611Z,85.57
2022-09-20T09:30:40.528Z,85.27
2022-09-20T09:31:40.712Z,85.77
2022-09-20T09:32:40.876Z,87.61
2022-09-20T09:33:50.949Z,88.22
2022-09-20T09:34:40.476Z,87.98
2022-09-20T09:35:40.651Z,87.16
2022-09-20T09:36:40.680Z,85.33
2022-09-20T09:37:41.428Z,84.72
2022-09-20T09:38:44.288Z,84.17
2022-09-20T09:40:59.807Z,83.96
2022-09-20T09:41:59.797Z,82.23
2022-09-20T09:42:59.767Z,83.25
2022-09-20T09:43:59.738Z,84.06
2022-09-20T09:44:59.812Z,82.23
2022-09-20T09:45:59.912Z,82.54
2022-09-20T09:47:00.787Z,83.92
2022-09-20T09:48:01.167Z,83.62
2022-09-20T09:49:21.084Z,84.43
2022-09-20T09:50:02.614Z,84.33
2022-09-20T09:51:01.782Z,83.42
2022-09-20T09:51:59.873Z,82.70
2022-09-20T09:53:02.648Z,83.51
2022-09-20T09:53:59.865Z,83.72
2022-09-20T09:55:03.195Z,82.09
2022-09-20T09:56:00.698Z,83.31
2022-09-20T09:56:59.733Z,81.27
2022-09-20T09:57:59.992Z,81.79
2022-09-20T09:59:00.375Z,83.31
2022-09-20T10:00:00.686Z,83.37
2022-09-20T10:01:11.113Z,82.66
2022-09-20T10:01:59.693Z,79.75
2022-09-20T10:02:59.712Z,77.00
2022-09-20T10:03:59.823Z,78.73
2022-09-20T10:04:59.681Z,77.51
2022-09-20T10:05:59.662Z,77.20
2022-09-20T10:06:59.558Z,79.34
2022-09-20T10:07:59.803Z,79.14
2022-09-20T10:09:05.724Z,80.16
2022-09-20T10:10:02.270Z,81.17
2022-09-20T10:11:01.668Z,81.58
2022-09-20T10:11:59.621Z,79.75
2022-09-20T10:12:59.728Z,79.14
2022-09-20T10:13:59.820Z,79.64
2022-09-20T10:14:59.609Z,80.26
2022-09-20T10:16:05.081Z,81.58
2022-09-20T10:17:20.850Z,81.88
2022-09-20T10:18:27.621Z,79.24
2022-09-20T10:19:03.727Z,80.36
2022-09-20T10:19:59.541Z,81.07
2022-09-20T10:20:59.398Z,78.42
2022-09-20T10:22:00.398Z,78.39
2022-09-20T10:23:29.999Z,78.69
2022-09-20T10:24:04.471Z,78.59
2022-09-20T10:25:01.718Z,78.19
2022-09-20T10:26:00.381Z,79.61
2022-09-20T10:26:59.279Z,77.94
2022-09-20T10:27:59.250Z,76.52
2022-09-20T10:28:59.317Z,75.60
2022-09-20T10:29:59.735Z,78.05
2022-09-20T10:31:05.484Z,77.64
2022-09-20T10:31:59.566Z,78.86
2022-09-20T10:32:59.335Z,76.89
2022-09-20T10:33:59.263Z,77.60
2022-09-20T10:34:59.474Z,77.20
2022-09-20T10:35:59.437Z,74.92
2022-09-20T10:36:59.554Z,74.11
2022-09-20T10:37:59.770Z,74.41
2022-09-20T10:39:00.042Z,75.12
2022-09-20T10:40:00.480Z,76.04
2022-09-20T10:40:59.871Z,76.10
2022-09-20T10:41:59.142Z,75.90
2022-09-20T10:42:59.905Z,76.31
2022-09-20T10:44:04.230Z,76.61
2022-09-20T10:45:00.339Z,76.51
2022-09-20T10:46:20.958Z,78.28
2022-09-20T10:47:00.327Z,78.17
2022-09-20T10:47:58.991Z,79.29
2022-09-20T10:48:59.031Z,77.67
2022-09-20T10:49:59.460Z,78.08
2022-09-20T10:50:59.137Z,77.87
2022-09-20T10:51:59.511Z,78.68
2022-09-20T10:52:59.151Z,77.91
2022-09-20T10:54:03.188Z,79.94
2022-09-20T10:55:00.020Z,79.43
2022-09-20T10:55:59.030Z,77.81
2022-09-20T10:56:58.979Z,79.53
2022-09-20T10:58:02.792Z,80.45
2022-09-20T10:59:00.918Z,77.50
2022-09-20T10:59:59.059Z,77.70
2022-09-20T11:00:58.896Z,78.58
2022-09-20T11:01:58.975Z,77.87
2022-09-20T11:02:58.860Z,77.56
2022-09-20T11:03:58.837Z,77.77
2022-09-20T11:04:59.003Z,76.10
2022-09-20T11:05:58.747Z,72.14
2022-09-20T11:06:58.704Z,73.06
2022-09-20T11:08:02.609Z,76.41
2022-09-20T11:08:58.786Z,75.97
2022-09-20T11:09:58.727Z,74.34
2022-09-20T11:10:59.918Z,76.68
2022-09-20T11:11:59.007Z,75.87
2022-09-20T11:12:58.735Z,74.55
2022-09-20T11:13:58.715Z,74.44
2022-09-20T11:14:58.796Z,75.26
2022-09-20T11:15:58.871Z,74.14
2022-09-20T11:16:58.969Z,76.28
2022-09-20T11:17:58.690Z,76.07
2022-09-20T11:18:58.555Z,76.37
2022-09-20T11:20:01.187Z,78.10
2022-09-20T11:20:59.855Z,74.88
2022-09-20T11:21:58.582Z,74.58
2022-09-20T11:22:58.591Z,74.48
2022-09-20T11:23:58.502Z,71.43
2022-09-20T11:24:58.522Z,70.11
2022-09-20T11:25:58.586Z,70.45
2022-09-20T11:26:58.725Z,69.84
2022-09-20T11:27:58.564Z,71.26
2022-09-20T11:28:58.595Z,71.97
2022-09-20T11:29:58.529Z,73.30
2022-09-20T11:30:58.531Z,73.09
2022-09-20T11:31:58.502Z,75.63
2022-09-20T11:32:58.370Z,74.41
2022-09-20T11:33:58.349Z,74.48
2022-09-20T11:34:58.310Z,73.57
2022-09-20T11:35:58.299Z,75.29
2022-09-20T11:36:58.503Z,74.58
2022-09-20T11:37:58.310Z,75.46
2022-09-20T11:38:58.258Z,76.58
2022-09-20T11:39:58.294Z,71.60
2022-09-20T11:40:58.329Z,72.31
2022-09-20T11:41:58.243Z,74.31
2022-09-20T11:42:58.236Z,72.69
2022-09-20T11:43:58.207Z,72.78
2022-09-20T11:44:58.196Z,72.08
2022-09-20T11:45:58.226Z,71.88
2022-09-20T11:46:58.169Z,72.17
2022-09-20T11:47:58.167Z,71.77
2022-09-20T11:48:58.186Z,69.34
2022-09-20T11:49:58.174Z,71.36
2022-09-20T11:50:58.144Z,69.60
2022-09-20T11:51:58.125Z,67.91
2022-09-20T11:52:58.095Z,68.52
2022-09-20T11:53:58.105Z,70.76
2022-09-20T11:54:58.052Z,71.23
2022-09-20T11:55:58.033Z,70.72
2022-09-20T11:57:59.171Z,72.75
2022-09-20T11:58:58.928Z,68.93
2022-09-20T11:59:59.012Z,70.15
2022-09-20T12:00:58.979Z,70.65
2022-09-20T12:01:58.950Z,72.45
2022-09-20T12:02:58.971Z,72.75
2022-09-20T12:04:20.484Z,73.77
2022-09-20T12:04:59.767Z,73.46
2022-09-20T12:05:58.746Z,70.72
2022-09-20T12:06:58.875Z,71.44
2022-09-20T12:07:58.808Z,72.14
2022-09-20T12:08:58.806Z,71.60
2022-09-20T12:09:58.950Z,72.72
2022-09-20T12:10:58.748Z,68.56
2022-09-20T12:11:58.715Z,67.65
2022-09-20T12:12:58.754Z,68.96
2022-09-20T12:13:58.693Z,69.20
2022-09-20T12:14:58.690Z,67.58
2022-09-20T12:15:58.674Z,68.79
2022-09-20T12:16:58.657Z,70.42
2022-09-20T12:17:58.644Z,70.62
2022-09-20T12:18:58.800Z,70.52
2022-09-20T12:19:58.685Z,67.47
2022-09-20T12:20:58.581Z,67.91
2022-09-20T12:21:58.622Z,66.19
2022-09-20T12:22:58.572Z,67.81
2022-09-20T12:23:58.541Z,69.54
2022-09-20T12:24:58.742Z,70.15
2022-09-20T12:25:58.582Z,69.84
2022-09-20T12:26:58.631Z,69.54
2022-09-20T12:27:58.572Z,70.76
2022-09-20T12:28:58.541Z,72.69
2022-09-20T12:29:58.509Z,73.50
2022-09-20T12:30:58.490Z,71.36
2022-09-20T12:31:58.459Z,69.34
2022-09-20T12:32:58.444Z,69.64
2022-09-20T12:33:58.429Z,70.55
2022-09-20T12:34:58.389Z,69.87
2022-09-20T12:35:58.349Z,69.98
2022-09-20T12:36:58.387Z,70.18
2022-09-20T12:37:58.421Z,73.13
2022-09-20T12:38:58.738Z,72.01
2022-09-20T12:40:02.819Z,68.45
2022-09-20T12:40:58.369Z,69.78
2022-09-20T12:41:58.468Z,70.48
2022-09-20T12:42:58.316Z,70.68
2022-09-20T12:43:58.309Z,71.91
2022-09-20T12:44:58.247Z,71.43
2022-09-20T12:46:03.856Z,71.33
2022-09-20T12:46:59.666Z,72.14
2022-09-20T12:47:58.614Z,73.06
2022-09-20T12:48:58.333Z,72.55
2022-09-20T12:49:58.356Z,72.14
2022-09-20T12:50:58.233Z,72.96
2022-09-20T12:51:58.193Z,69.70
2022-09-20T12:52:58.345Z,72.25
2022-09-20T12:53:58.256Z,72.75
2022-09-20T12:55:03.816Z,72.96
2022-09-20T12:55:59.325Z,73.06
2022-09-20T12:56:58.216Z,74.18
2022-09-20T12:57:58.164Z,72.55
2022-09-20T12:58:58.154Z,71.23
2022-09-20T12:59:58.203Z,71.23
2022-09-20T13:00:58.205Z,72.65
2022-09-20T13:01:58.094Z,73.53
2022-09-20T13:02:58.399Z,72.72
2022-09-20T13:03:58.012Z,69.67
2022-09-20T13:04:58.065Z,68.96
2022-09-20T13:05:58.281Z,68.55
2022-09-20T13:07:02.975Z,68.76
2022-09-20T13:07:58.242Z,70.48
2022-09-20T13:08:58.511Z,67.44
2022-09-20T13:09:58.059Z,64.70
2022-09-20T13:10:58.329Z,68.66
2022-09-20T13:11:58.062Z,70.89
2022-09-20T13:12:59.294Z,71.09
2022-09-20T13:13:58.288Z,69.37
2022-09-20T13:14:58.299Z,63.78
2022-09-20T13:15:58.320Z,66.12
2022-09-20T13:16:58.299Z,66.12
2022-09-20T13:17:58.530Z,68.45
2022-09-20T13:18:58.249Z,68.45
2022-09-20T13:19:57.828Z,69.06
2022-09-20T13:20:57.896Z,63.48
2022-09-20T13:21:57.853Z,63.98
2022-09-20T13:23:08.311Z,65.20
2022-09-20T13:23:58.094Z,64.97
2022-09-20T13:25:07.857Z,65.68
2022-09-20T13:26:08.092Z,66.05
2022-09-20T13:26:59.056Z,64.73
2022-09-20T13:28:08.796Z,65.01
2022-09-20T13:30:30.085Z,64.98
2022-09-20T13:31:30.131Z,65.25
2022-09-20T13:33:54.086Z,61.20
2022-09-20T13:34:54.047Z,62.62
2022-09-20T13:35:54.023Z,60.16
2022-09-20T13:36:56.323Z,62.99
2022-09-20T13:39:57.194Z,59.25
2022-09-20T13:40:57.354Z,58.81
2022-09-20T13:42:08.291Z,57.60
2022-09-20T13:43:23.090Z,55.88
2022-09-20T13:43:58.075Z,57.20
2022-09-20T13:44:57.002Z,60.63
2022-09-20T13:45:57.018Z,59.01
2022-09-20T13:48:25.478Z,59.70
2022-09-20T13:50:33.022Z,56.99
2022-09-20T13:51:33.115Z,59.63
2022-09-20T13:52:33.053Z,59.52
2022-09-20T13:53:41.882Z,59.34
2022-09-20T13:54:34.006Z,59.45
2022-09-20T13:55:32.948Z,61.37
2022-09-20T13:56:32.978Z,63.17
2022-09-20T13:57:33.320Z,64.69
2022-09-20T13:58:33.165Z,65.36
2022-09-20T13:59:33.277Z,64.25
2022-09-20T14:00:32.918Z,60.07
2022-09-20T14:01:32.879Z,61.19
2022-09-20T14:02:32.938Z,59.34
2022-09-20T14:03:32.980Z,62.27
2022-09-20T14:04:32.858Z,63.08
2022-09-20T14:05:32.868Z,62.44
2022-09-20T14:06:32.815Z,60.02
2022-09-20T14:07:32.872Z,60.49